Time;durP1;ratioP1;P1;durP2;ratioP2;P2;SDS_P1;SDS_P2;PMS_P1;PMS_P2;Temp;Humidity;BMP_temperature;BMP_pressure;BME280_temperature;BME280_humidity;BME280_pressure;Samples;Min_cycle;Max_cycle;Signal;HPM_P1;HPM_P2
2022/05/08 00:00:25;;;;;;;1.05;0.95;;;22.10;37.80;;;25.96;24.54;102322.25;5092975;28;20052;-16
2022/05/08 00:02:54;;;;;;;0.80;0.80;;;22.10;37.70;;;25.97;24.60;102323.97;5092697;28;20040;-16
2022/05/08 00:05:20;;;;;;;1.15;1.05;;;22.10;37.70;;;26.00;24.62;102329.16;5092622;28;20083;-16
2022/05/08 00:07:45;;;;;;;0.88;0.82;;;22.10;37.70;;;25.98;24.65;102333.75;5092652;28;20488;-16
2022/05/08 00:10:11;;;;;;;0.80;0.80;;;22.10;37.70;;;25.97;24.63;102332.88;5092397;28;20051;-16
2022/05/08 00:12:37;;;;;;;1.13;1.02;;;22.10;37.80;;;25.91;24.59;102322.50;5092888;28;20051;-16
2022/05/08 00:15:05;;;;;;;1.00;1.00;;;22.10;37.80;;;25.93;24.78;102330.41;5092482;28;20040;-16
2022/05/08 00:17:34;;;;;;;0.70;0.70;;;22.10;37.80;;;25.94;24.71;102335.69;5092418;28;20054;-16
2022/05/08 00:20:04;;;;;;;0.80;0.80;;;22.10;37.80;;;25.95;24.58;102328.53;5092713;28;20048;-16
2022/05/08 00:22:29;;;;;;;1.20;1.10;;;22.10;37.70;;;25.96;24.68;102332.97;5092284;28;20090;-16
2022/05/08 00:24:55;;;;;;;0.80;0.80;;;22.10;37.80;;;25.86;24.70;102317.41;5093698;28;20044;-16
2022/05/08 00:27:21;;;;;;;0.90;0.90;;;22.10;37.80;;;25.94;24.56;102329.47;5095858;28;20101;-16
2022/05/08 00:29:47;;;;;;;1.45;1.00;;;22.10;37.80;;;25.88;24.63;102318.19;5077319;28;20976;-16
2022/05/08 00:32:13;;;;;;;1.02;1.00;;;22.10;37.80;;;25.93;24.66;102327.75;5095812;28;20484;-16
2022/05/08 00:34:41;;;;;;;1.13;1.02;;;22.10;37.80;;;25.94;24.59;102326.81;5095749;28;20071;-16
2022/05/08 00:37:07;;;;;;;1.23;0.93;;;22.10;37.70;;;25.93;24.71;102328.63;5095633;28;20044;-16
2022/05/08 00:39:36;;;;;;;0.98;0.98;;;22.10;37.70;;;25.86;24.72;102322.78;5095684;28;20506;-16
2022/05/08 00:42:02;;;;;;;1.00;0.90;;;22.10;37.80;;;25.90;24.74;102328.81;5095666;28;20044;-16
2022/05/08 00:44:28;;;;;;;0.80;0.80;;;22.10;37.80;;;25.88;24.76;102330.72;5096190;28;20070;-16
2022/05/08 00:46:53;;;;;;;0.88;0.77;;;22.10;37.90;;;25.84;24.68;102322.00;5095655;28;20479;-16
2022/05/08 00:49:19;;;;;;;0.90;0.90;;;22.10;37.90;;;25.88;24.86;102330.72;5095418;28;20052;-16
2022/05/08 00:51:48;;;;;;;1.10;0.85;;;22.00;37.90;;;25.81;24.79;102322.19;5095618;28;20043;-16
2022/05/08 00:54:15;;;;;;;1.92;1.10;;;22.00;37.90;;;25.83;24.77;102319.41;5075883;28;20102;-16
2022/05/08 00:56:42;;;;;;;1.45;1.10;;;22.00;37.90;;;25.82;24.66;102315.84;5075284;28;20045;-16
2022/05/08 00:59:08;;;;;;;1.58;0.90;;;22.00;37.80;;;25.85;24.72;102325.53;5095441;28;20051;-16
2022/05/08 01:01:33;;;;;;;1.55;0.77;;;22.00;37.80;;;25.88;24.51;102326.22;5095593;28;20404;-16
2022/05/08 01:03:59;;;;;;;1.27;1.02;;;22.00;37.80;;;25.86;24.69;102325.44;5095430;28;20055;-16
2022/05/08 01:06:27;;;;;;;1.08;1.00;;;22.00;37.90;;;25.78;24.73;102317.00;5095352;28;20075;-16
2022/05/08 01:08:54;;;;;;;0.70;0.70;;;21.90;38.00;;;25.80;24.89;102319.59;5095635;28;20056;-16
2022/05/08 01:11:20;;;;;;;1.05;1.00;;;22.00;37.90;;;25.85;24.71;102330.91;5095715;28;20064;-16
2022/05/08 01:13:47;;;;;;;1.08;1.02;;;22.00;37.90;;;25.77;24.88;102320.63;5095240;28;20151;-16
2022/05/08 01:16:16;;;;;;;1.00;0.90;;;22.00;37.90;;;25.82;24.80;102321.22;5095014;28;20475;-16
2022/05/08 01:18:46;;;;;;;0.82;0.82;;;22.00;37.80;;;25.83;24.72;102336.34;5095169;28;20044;-16
2022/05/08 01:21:18;;;;;;;1.08;1.00;;;22.00;37.90;;;25.83;24.99;102338.19;5095024;28;20082;-16
2022/05/08 01:23:46;;;;;;;0.80;0.80;;;22.00;38.50;;;25.82;24.72;102331.94;5077229;28;20480;-16
2022/05/08 01:26:11;;;;;;;0.95;0.90;;;22.00;37.90;;;25.80;24.88;102322.28;5094990;28;20048;-16
2022/05/08 01:28:37;;;;;;;1.00;0.90;;;22.00;38.00;;;25.82;24.85;102331.06;5095437;28;20047;-16
2022/05/08 01:31:03;;;;;;;0.82;0.82;;;21.90;38.00;;;25.75;24.71;102322.53;5094614;28;20055;-16
2022/05/08 01:33:29;;;;;;;1.27;0.90;;;21.90;38.00;;;25.77;24.70;102328.66;5095444;28;20559;-16
2022/05/08 01:35:56;;;;;;;1.00;0.90;;;21.90;38.00;;;25.76;24.87;102332.31;5094037;28;20049;-16
2022/05/08 01:38:24;;;;;;;0.95;0.85;;;21.90;38.00;;;25.73;24.78;102323.56;5094922;28;20502;-16
2022/05/08 01:40:55;;;;;;;1.20;1.10;;;21.90;38.00;;;25.72;24.77;102324.53;5094596;28;20051;-16
2022/05/08 01:43:20;;;;;;;0.82;0.80;;;21.90;38.00;;;25.69;24.86;102322.91;5095128;28;20036;-16
2022/05/08 01:45:47;;;;;;;1.23;1.00;;;21.90;38.00;;;25.72;24.88;102330.75;5094716;28;20071;-16
2022/05/08 01:48:22;;;;;;;0.80;0.80;;;21.90;38.10;;;25.67;24.83;102325.66;5094977;28;20048;-16
2022/05/08 01:50:59;;;;;;;0.90;0.90;;;21.90;38.10;;;25.66;24.86;102336.47;5094774;28;20044;-16
2022/05/08 01:53:27;;;;;;;1.30;1.13;;;21.90;38.10;;;25.59;24.98;102317.22;5094559;28;20436;-16
2022/05/08 01:55:56;;;;;;;1.75;1.25;;;21.80;38.10;;;25.62;25.08;102330.44;5094455;28;20043;-16
2022/05/08 01:58:27;;;;;;;1.42;1.20;;;21.80;38.10;;;25.63;25.04;102332.16;5076371;28;20055;-16
2022/05/08 02:00:55;;;;;;;0.70;0.70;;;21.80;38.20;;;25.61;24.90;102331.41;5094634;28;20051;-16
2022/05/08 02:03:22;;;;;;;1.10;0.85;;;21.80;38.20;;;25.60;24.92;102335.03;5076941;28;20079;-16
2022/05/08 02:05:48;;;;;;;1.00;0.90;;;21.80;38.10;;;25.61;24.94;102333.19;5094427;28;20048;-16
2022/05/08 02:08:15;;;;;;;1.38;1.10;;;21.80;38.20;;;25.58;24.99;102336.94;5094355;28;20052;-16
2022/05/08 02:10:43;;;;;;;1.67;1.08;;;21.80;38.20;;;25.60;24.95;102337.72;5094420;28;20048;-16
2022/05/08 02:13:09;;;;;;;0.82;0.82;;;21.80;38.20;;;25.64;24.93;102335.69;5094395;28;20108;-16
2022/05/08 02:15:36;;;;;;;1.42;1.00;;;21.80;38.20;;;25.61;24.99;102333.19;5094224;28;20052;-16
2022/05/08 02:18:06;;;;;;;0.80;0.80;;;21.80;38.10;;;25.69;24.97;102345.22;5094591;28;20075;-17
2022/05/08 02:20:32;;;;;;;1.20;1.10;;;21.80;38.10;;;25.69;24.90;102338.97;5094803;28;20052;-16
2022/05/08 02:22:59;;;;;;;0.98;0.90;;;21.80;38.10;;;25.64;24.84;102335.69;5094133;28;20048;-16
2022/05/08 02:25:25;;;;;;;0.90;0.90;;;21.90;38.10;;;25.70;24.85;102336.22;5094164;28;20067;-16
2022/05/08 02:27:51;;;;;;;0.80;0.80;;;21.90;38.00;;;25.69;24.84;102336.28;5094483;28;20048;-16
2022/05/08 02:30:22;;;;;;;1.67;1.13;;;21.90;38.00;;;25.72;24.83;102341.47;5093940;28;20090;-16
2022/05/08 02:32:53;;;;;;;1.02;0.90;;;21.90;38.10;;;25.72;24.88;102338.78;5094067;28;20036;-16
2022/05/08 02:35:20;;;;;;;1.17;0.90;;;21.90;38.10;;;25.74;24.71;102344.06;5094285;28;20043;-16
2022/05/08 02:37:48;;;;;;;1.10;1.00;;;21.80;38.00;;;25.67;24.87;102333.69;5093742;28;20048;-16
2022/05/08 02:40:15;;;;;;;1.75;1.10;;;21.80;38.10;;;25.70;24.89;102346.91;5093765;28;20052;-16
2022/05/08 02:42:40;;;;;;;0.98;0.93;;;21.80;38.10;;;25.66;24.82;102336.47;5094132;28;20047;-16
2022/05/08 02:45:10;;;;;;;1.35;0.95;;;21.80;38.10;;;25.66;25.00;102333.78;5093675;28;20126;-16
2022/05/08 02:47:39;;;;;;;1.48;1.17;;;21.80;38.20;;;25.64;24.97;102349.97;5093805;28;20384;-17
2022/05/08 02:50:06;;;;;;;1.08;0.90;;;21.80;38.20;;;25.65;24.87;102340.97;5094027;28;20142;-16
2022/05/08 02:52:32;;;;;;;1.10;1.00;;;21.80;38.20;;;25.65;25.00;102348.16;5093714;28;20522;-16
2022/05/08 02:58:32;;;;;;;1.17;1.08;;;21.80;38.20;;;25.60;24.93;102340.38;5093709;28;20154;-16
2022/05/08 03:00:38;;;;;;;1.10;1.00;;;21.70;38.10;;;25.64;24.90;102346.41;5093603;28;20048;-16
2022/05/08 03:03:06;;;;;;;1.23;0.93;;;21.70;38.20;;;25.63;25.02;102342.88;5093558;28;20055;-16
2022/05/08 03:05:32;;;;;;;1.38;0.90;;;21.70;38.10;;;25.58;24.85;102328.91;5093947;28;20088;-16
2022/05/08 03:07:58;;;;;;;1.42;1.25;;;21.70;38.10;;;25.58;24.93;102325.38;5093183;28;20052;-17
2022/05/08 03:10:24;;;;;;;1.10;1.00;;;21.80;38.20;;;25.64;24.77;102344.63;5093414;28;20097;-16
2022/05/08 03:12:50;;;;;;;1.52;0.90;;;21.80;38.10;;;25.63;24.88;102334.84;5093432;28;20052;-16
2022/05/08 03:15:16;;;;;;;1.08;0.90;;;21.80;38.10;;;25.61;24.73;102333.19;5093266;28;20048;-16
2022/05/08 03:17:43;;;;;;;1.08;1.00;;;21.80;38.20;;;25.55;24.75;102329.06;5093522;28;20044;-16
2022/05/08 03:20:11;;;;;;;1.50;1.13;;;21.80;38.10;;;25.63;24.92;102342.03;5074838;28;20048;-16
2022/05/08 03:22:36;;;;;;;0.98;0.88;;;21.70;38.10;;;25.65;24.92;102349.00;5074413;28;20098;-16
2022/05/08 03:25:02;;;;;;;1.50;1.02;;;21.70;38.10;;;25.60;25.01;102342.22;5093076;28;20048;-16
2022/05/08 03:27:30;;;;;;;1.30;1.20;;;21.80;38.20;;;25.59;24.86;102341.31;5093663;28;20051;-16
2022/05/08 03:29:56;;;;;;;2.28;1.33;;;21.80;38.20;;;25.59;24.85;102341.31;5092859;28;20452;-16
2022/05/08 03:32:22;;;;;;;0.90;0.70;;;21.70;38.10;;;25.65;24.83;102350.84;5093007;28;20048;-16
2022/05/08 03:34:47;;;;;;;1.17;1.10;;;21.80;38.10;;;25.55;24.84;102341.63;5093064;28;20408;-17
2022/05/08 03:37:14;;;;;;;1.10;1.00;;;21.80;38.10;;;25.62;24.84;102354.53;5092886;28;20407;-16
2022/05/08 03:39:40;;;;;;;1.20;1.10;;;21.70;38.10;;;25.64;24.99;102358.03;5092673;28;20051;-16
2022/05/08 03:42:06;;;;;;;1.85;1.00;;;21.70;38.10;;;25.60;24.95;102352.91;5093170;28;20047;-16
2022/05/08 03:44:32;;;;;;;1.02;0.93;;;21.80;38.20;;;25.63;24.77;102356.28;5093269;28;20048;-16
2022/05/08 03:46:57;;;;;;;1.70;1.08;;;21.80;38.10;;;25.60;24.79;102345.75;5092913;28;20586;-16
2022/05/08 03:49:24;;;;;;;1.75;0.93;;;21.80;38.10;;;25.65;24.90;102357.03;5092733;28;20056;-16
2022/05/08 03:51:50;;;;;;;1.42;0.90;;;21.80;38.10;;;25.62;24.87;102356.38;5093239;28;20059;-16
2022/05/08 03:54:16;;;;;;;1.10;1.05;;;21.80;38.10;;;25.63;24.72;102352.75;5088749;28;20056;-16
2022/05/08 03:56:42;;;;;;;0.70;0.70;;;21.80;38.10;;;25.66;24.86;102356.09;5074796;28;20032;-16
2022/05/08 03:59:09;;;;;;;1.42;1.15;;;21.80;38.00;;;25.65;24.81;102353.50;5091924;28;20052;-16
2022/05/08 04:01:35;;;;;;;1.10;1.00;;;21.80;38.00;;;25.67;24.80;102356.97;5092973;28;20083;-16
2022/05/08 04:04:03;;;;;;;0.80;0.70;;;21.80;38.00;;;25.69;24.93;102366.66;5092878;28;20055;-16
2022/05/08 04:06:30;;;;;;;1.02;0.80;;;21.90;38.00;;;25.69;24.74;102357.72;5092463;28;20048;-16
2022/05/08 04:08:55;;;;;;;1.17;1.00;;;21.80;37.90;;;25.69;24.98;102363.97;5092305;28;20052;-16
2022/05/08 04:11:21;;;;;;;1.27;1.00;;;21.90;38.00;;;25.73;24.79;102361.97;5092507;28;20047;-16
2022/05/08 04:13:47;;;;;;;1.15;1.05;;;21.90;37.90;;;25.72;24.95;102362.91;5092466;28;20125;-16
2022/05/08 04:16:15;;;;;;;1.35;1.00;;;21.90;37.90;;;25.70;24.96;102362.13;5092366;28;20487;-16
2022/05/08 04:18:42;;;;;;;0.88;0.88;;;22.00;37.90;;;25.77;24.85;102366.19;5092434;28;20102;-16
2022/05/08 04:21:07;;;;;;;1.20;1.00;;;22.00;37.80;;;25.72;24.74;102354.88;5092723;28;20059;-16
2022/05/08 04:26:17;;;;;;;1.02;0.93;;;22.00;37.70;;;25.86;24.73;102364.75;5092699;28;20052;-16
2022/05/08 04:28:43;;;;;;;1.42;0.95;;;22.00;37.70;;;25.87;24.70;102361.13;5092347;28;20048;-16
2022/05/08 04:31:09;;;;;;;1.30;1.00;;;22.10;37.70;;;25.91;24.75;102365.38;5092381;28;20044;-16
2022/05/08 04:33:34;;;;;;;0.98;0.75;;;22.10;37.60;;;25.93;24.66;102359.91;5074218;28;20048;-16
2022/05/08 04:36:00;;;;;;;2.17;1.05;;;22.10;37.60;;;25.97;24.67;102364.16;5092176;28;20051;-16
2022/05/08 04:38:26;;;;;;;0.88;0.80;;;22.20;37.60;;;25.93;24.65;102357.22;5092192;28;20052;-16
2022/05/08 04:40:52;;;;;;;1.85;0.90;;;22.20;37.50;;;26.02;24.62;102370.97;5092147;28;20048;-16
2022/05/08 04:43:17;;;;;;;1.35;0.90;;;22.20;37.50;;;26.07;24.59;102376.91;5092106;28;20058;-16
2022/05/08 04:45:43;;;;;;;1.15;1.00;;;22.30;37.50;;;26.06;24.70;102371.66;5092375;28;20052;-16
2022/05/08 04:48:09;;;;;;;1.45;1.10;;;22.30;37.50;;;26.09;24.63;102370.63;5092063;28;20058;-16
2022/05/08 04:50:35;;;;;;;1.23;1.00;;;22.30;37.30;;;26.13;24.62;102375.72;5091970;28;20056;-16
2022/05/08 04:53:01;;;;;;;1.30;1.00;;;22.40;37.30;;;26.16;24.60;102372.84;5092053;28;20546;-16
2022/05/08 04:55:26;;;;;;;1.38;0.90;;;22.40;37.30;;;26.23;24.42;102384.06;5092345;28;20050;-16
2022/05/08 04:57:52;;;;;;;1.38;1.00;;;22.40;37.20;;;26.24;24.34;102378.59;5091768;28;20043;-17
2022/05/08 05:00:18;;;;;;;1.77;1.00;;;22.50;37.20;;;26.28;24.30;102378.38;5091877;28;20480;-16
2022/05/08 05:02:44;;;;;;;1.08;0.90;;;22.50;37.10;;;26.38;24.25;102385.78;5092287;28;20434;-16
2022/05/08 05:05:10;;;;;;;1.17;0.85;;;22.60;37.10;;;26.42;24.25;102383.78;5091888;28;20040;-16
2022/05/08 05:07:40;;;;;;;1.42;1.05;;;22.60;37.00;;;26.40;24.23;102386.56;5091847;28;20063;-16
2022/05/08 05:10:10;;;;;;;1.10;0.95;;;22.70;36.90;;;26.47;24.27;102381.69;5091834;28;20411;-16
2022/05/08 05:12:36;;;;;;;1.15;1.05;;;22.70;36.90;;;26.51;24.20;102387.72;5094204;28;20477;-16
2022/05/08 05:15:03;;;;;;;1.40;1.10;;;22.70;36.90;;;26.56;24.12;102385.59;5095267;28;20048;-16
2022/05/08 05:17:29;;;;;;;1.13;1.00;;;22.80;36.80;;;26.60;24.03;102393.38;5095088;28;20522;-16
2022/05/08 05:19:55;;;;;;;2.33;1.10;;;22.80;37.20;;;26.61;23.91;102384.38;5095134;28;20056;-16
2022/05/08 05:22:22;;;;;;;0.75;0.75;;;22.80;36.60;;;26.62;23.96;102385.25;5094997;28;20552;-16
2022/05/08 05:24:48;;;;;;;1.17;0.82;;;23.00;36.60;;;26.77;23.82;102400.41;5095401;28;20097;-16
2022/05/08 05:27:14;;;;;;;1.27;1.17;;;23.00;36.50;;;26.76;23.93;102390.66;5093975;28;20043;-16
2022/05/08 05:29:40;;;;;;;1.17;0.90;;;23.00;36.50;;;26.85;24.00;102399.03;5094893;28;20071;-16
2022/05/08 05:32:07;;;;;;;1.60;0.90;;;23.10;36.50;;;26.88;23.73;102396.19;5095226;28;20047;-16
2022/05/08 05:34:32;;;;;;;1.15;0.93;;;23.10;36.40;;;26.87;23.96;102398.00;5094958;28;20051;-16
2022/05/08 05:36:58;;;;;;;0.93;0.85;;;23.10;36.40;;;26.96;23.59;102404.59;5095028;28;20075;-17
2022/05/08 05:39:24;;;;;;;1.15;0.82;;;23.10;36.30;;;27.00;23.92;102414.22;5094737;28;20441;-16
2022/05/08 05:41:51;;;;;;;1.83;0.90;;;23.20;36.30;;;27.00;23.64;102408.84;5094462;28;20056;-16
2022/05/08 05:44:16;;;;;;;1.02;0.82;;;23.20;36.20;;;27.06;23.65;102415.63;5094811;28;20048;-16
2022/05/08 05:49:27;;;;;;;2.00;1.30;;;23.30;36.10;;;27.13;23.58;102419.63;5092152;28;20048;-16
2022/05/08 05:51:54;;;;;;;0.70;0.70;;;23.30;36.10;;;27.17;23.36;102422.03;5094992;28;20419;-16
2022/05/08 05:54:23;;;;;;;1.25;0.90;;;23.40;36.00;;;27.28;23.38;102436.59;5094347;28;20091;-16
2022/05/08 05:56:49;;;;;;;1.17;0.80;;;23.40;36.00;;;27.31;23.50;102439.13;5094473;28;20044;-17
2022/05/08 05:59:15;;;;;;;1.15;0.70;;;23.50;35.90;;;27.34;23.30;102439.78;5094079;28;20540;-16
2022/05/08 06:01:42;;;;;;;1.23;0.90;;;23.50;35.90;;;27.34;23.49;102428.19;5094852;28;20143;-16
2022/05/08 06:04:08;;;;;;;0.98;0.90;;;23.50;35.90;;;27.41;23.54;102442.06;5094409;28;20052;-16
2022/05/08 06:06:33;;;;;;;1.58;0.90;;;23.50;35.80;;;27.45;23.05;102439.09;5094415;28;20059;-16
2022/05/08 06:08:59;;;;;;;1.17;0.90;;;23.60;35.80;;;27.42;23.20;102431.22;5093843;28;20106;-16
2022/05/08 06:11:25;;;;;;;1.33;1.08;;;23.60;35.80;;;27.48;23.18;102435.31;5094312;28;20051;-16
2022/05/08 06:13:51;;;;;;;2.40;1.20;;;23.60;35.70;;;27.51;22.94;102435.97;5094302;28;20051;-16
2022/05/08 06:16:17;;;;;;;0.70;0.70;;;23.60;35.70;;;27.58;23.07;102444.50;5094230;28;20070;-16
2022/05/08 06:18:44;;;;;;;1.83;1.00;;;23.70;35.70;;;27.58;22.84;102441.81;5094069;28;20046;-16
2022/05/08 06:21:10;;;;;;;1.08;0.80;;;23.70;35.60;;;27.54;23.03;102430.41;5094155;28;20496;-16
2022/05/08 06:23:36;;;;;;;1.83;1.15;;;23.70;35.60;;;27.58;22.98;102431.06;5093490;28;20055;-16
2022/05/08 06:26:03;;;;;;;1.20;0.90;;;23.70;35.50;;;27.63;23.13;102434.34;5094068;28;20048;-16
2022/05/08 06:28:32;;;;;;;1.67;0.90;;;23.80;35.50;;;27.66;22.97;102438.63;5093591;28;20112;-17
2022/05/08 06:30:57;;;;;;;1.10;0.98;;;23.80;35.50;;;27.69;23.14;102433.06;5094037;28;20430;-16
2022/05/08 06:33:23;;;;;;;1.05;0.95;;;23.80;35.50;;;27.76;22.96;102445.13;5094292;28;20052;-16
2022/05/08 06:35:49;;;;;;;1.05;0.90;;;23.80;35.40;;;27.81;22.87;102442.13;5094001;28;20130;-16
2022/05/08 06:38:15;;;;;;;1.13;0.85;;;23.80;35.40;;;27.85;22.62;102446.34;5078141;28;20054;-16
2022/05/08 06:40:43;;;;;;;1.10;0.85;;;23.90;35.40;;;27.82;22.83;102436.66;5093793;28;20142;-16
2022/05/08 06:43:09;;;;;;;2.70;0.75;;;23.90;35.30;;;27.83;22.68;102434.81;5093828;28;20056;-16
2022/05/08 06:45:36;;;;;;;1.20;1.00;;;23.90;35.20;;;27.88;22.61;102438.06;5094142;28;20059;-16
2022/05/08 06:48:06;;;;;;;1.33;0.77;;;23.90;35.20;;;27.97;22.39;102453.63;5094041;28;20052;-16
2022/05/08 06:50:33;;;;;;;1.80;1.20;;;24.00;35.30;;;28.01;22.81;102459.66;5093651;28;20089;-16
2022/05/08 06:52:59;;;;;;;1.35;1.08;;;24.00;35.20;;;28.01;22.51;102462.34;5074865;28;20381;-16
2022/05/08 06:55:25;;;;;;;1.70;1.13;;;24.00;35.20;;;28.01;22.41;102454.28;5093612;28;20110;-16
2022/05/08 06:57:51;;;;;;;0.82;0.80;;;24.00;35.20;;;28.02;22.46;102458.69;5093577;28;20055;-16
2022/05/08 07:03:07;;;;;;;1.10;0.98;;;24.10;35.60;;;28.08;22.38;102459.16;5093521;28;20052;-16
2022/05/08 07:05:38;;;;;;;0.98;0.80;;;24.10;35.10;;;28.17;22.40;102472.94;5093817;28;20054;-17
2022/05/08 07:08:04;;;;;;;1.35;1.00;;;24.10;35.10;;;28.17;22.40;102470.25;5093687;28;20499;-17
2022/05/08 07:10:29;;;;;;;0.93;0.80;;;24.10;35.00;;;28.18;22.19;102469.25;5093434;28;20483;-16
2022/05/08 07:12:56;;;;;;;0.73;0.60;;;24.20;35.00;;;28.20;22.28;102462.84;5093444;28;20044;-16
2022/05/08 07:15:22;;;;;;;1.10;0.90;;;24.20;34.90;;;28.25;22.34;102467.88;5093260;28;20048;-16
2022/05/08 07:17:48;;;;;;;0.82;0.82;;;24.20;35.00;;;28.23;22.18;102457.25;5093202;28;20055;-17
2022/05/08 07:20:14;;;;;;;1.45;0.93;;;24.20;34.90;;;28.24;22.05;102461.63;5093185;28;20048;-16
2022/05/08 07:22:39;;;;;;;1.27;0.82;;;24.20;34.80;;;28.27;22.46;102468.66;5093540;28;20385;-16
2022/05/08 07:25:06;;;;;;;0.77;0.70;;;24.20;34.80;;;28.32;22.40;102474.56;5093214;28;20484;-16
2022/05/08 07:27:36;;;;;;;1.20;0.90;;;24.30;34.80;;;28.27;22.31;102456.06;5093108;28;20507;-16
2022/05/08 07:30:04;;;;;;;1.83;1.10;;;24.30;34.80;;;28.31;22.40;102464.78;5093281;28;20087;-16
2022/05/08 07:32:30;;;;;;;1.10;0.85;;;24.30;34.80;;;28.35;22.01;102465.41;5093610;28;20075;-16
2022/05/08 07:37:41;;;;;;;1.52;1.08;;;24.30;34.80;;;28.41;22.16;102481.16;5093162;28;20437;-16
2022/05/08 07:40:07;;;;;;;1.48;1.10;;;24.30;34.80;;;28.36;22.04;102464.47;5092992;28;20403;-16
2022/05/08 07:42:33;;;;;;;1.30;0.80;;;24.30;34.80;;;28.38;21.99;102460.69;5092829;28;20487;-17
2022/05/08 07:44:58;;;;;;;1.30;0.90;;;24.30;34.80;;;28.41;22.19;102475.78;5093088;28;20040;-17
2022/05/08 07:47:24;;;;;;;1.67;1.00;;;24.30;35.30;;;28.48;22.26;102471.69;5092719;28;20043;-17
2022/05/08 07:49:50;;;;;;;2.53;1.02;;;24.40;34.80;;;28.46;22.23;102477.16;5092825;28;20105;-17
2022/05/08 07:52:16;;;;;;;1.00;0.90;;;24.40;34.70;;;28.51;21.95;102481.38;5092847;28;20507;-17
2022/05/08 07:54:44;;;;;;;1.00;0.90;;;24.40;34.70;;;28.45;22.00;102472.78;5092831;28;20048;-17
2022/05/08 07:57:13;;;;;;;0.77;0.70;;;24.40;34.70;;;28.48;22.02;102469.00;5092672;28;20499;-17
2022/05/08 07:59:39;;;;;;;0.95;0.73;;;24.40;34.70;;;28.48;21.79;102476.22;5093043;28;20537;-17
2022/05/08 08:02:06;;;;;;;0.90;0.80;;;24.40;34.60;;;28.52;21.99;102475.00;5092689;28;20048;-17
2022/05/08 08:04:34;;;;;;;1.95;1.02;;;24.40;34.70;;;28.54;21.88;102482.03;5092955;28;20086;-17
2022/05/08 08:07:03;;;;;;;1.00;0.90;;;24.40;34.70;;;28.48;21.83;102471.69;5092636;28;20484;-17
2022/05/08 08:09:28;;;;;;;1.30;0.85;;;24.40;34.70;;;28.53;21.78;102485.69;5092369;28;20555;-17
2022/05/08 08:11:54;;;;;;;1.02;0.70;;;24.40;34.70;;;28.51;22.06;102484.06;5092493;28;20080;-17
2022/05/08 08:14:21;;;;;;;1.20;0.80;;;24.40;34.70;;;28.50;22.09;102490.41;5092356;28;20236;-17
2022/05/08 08:16:47;;;;;;;1.00;0.65;;;24.30;34.70;;;28.49;22.13;102496.78;5092033;28;20052;-17
2022/05/08 08:19:13;;;;;;;1.60;0.80;;;24.30;34.80;;;28.42;21.72;102482.88;5091997;28;20058;-17
2022/05/08 08:21:39;;;;;;;1.00;0.88;;;24.30;35.40;;;28.43;22.10;102489.97;5092371;28;20052;-17
2022/05/08 08:24:06;;;;;;;1.08;0.85;;;24.30;34.80;;;28.38;22.26;102484.03;5092524;28;20055;-17
2022/05/08 08:26:32;;;;;;;1.00;0.90;;;24.20;34.80;;;28.33;22.13;102489.72;5092847;28;20060;-17
2022/05/08 08:28:57;;;;;;;1.10;0.90;;;24.20;34.80;;;28.36;21.99;102494.06;5092011;28;20063;-17
2022/05/08 08:31:23;;;;;;;1.05;0.70;;;24.20;34.90;;;28.27;22.07;102488.34;5088196;28;20048;-17
2022/05/08 08:33:49;;;;;;;1.10;1.00;;;24.20;35.00;;;28.30;22.10;102497.16;5092595;28;20052;-17
2022/05/08 08:36:15;;;;;;;1.15;0.85;;;24.10;35.00;;;28.25;22.31;102492.97;5092216;28;20048;-17
2022/05/08 08:38:40;;;;;;;0.95;0.88;;;24.10;35.00;;;28.23;22.08;102494.91;5092537;28;20052;-17
2022/05/08 08:41:08;;;;;;;1.15;0.98;;;24.10;35.10;;;28.08;22.27;102474.41;5092693;28;20127;-17
2022/05/08 08:47:42;;;;;;;1.10;1.00;;;24.00;35.10;;;28.14;22.26;102494.66;5074224;28;20048;-17
2022/05/08 08:49:25;;;;;;;0.80;0.80;;;24.00;35.70;;;28.04;22.53;102483.66;5095819;28;20044;-17
2022/05/08 08:51:52;;;;;;;1.60;0.90;;;23.90;35.20;;;28.03;22.38;102477.41;5095661;28;20101;-17
2022/05/08 08:54:19;;;;;;;1.10;1.00;;;23.90;35.30;;;27.97;22.28;102477.81;5095299;28;20048;-16
2022/05/08 08:56:46;;;;;;;1.23;0.95;;;23.90;35.30;;;27.98;22.24;102487.59;5095284;28;20428;-17
2022/05/08 08:59:11;;;;;;;0.80;0.70;;;23.80;35.30;;;27.94;22.37;102488.78;5095305;28;20094;-17
2022/05/08 09:01:43;;;;;;;1.17;0.80;;;23.80;35.40;;;27.86;22.62;102486.56;5095462;28;20476;-17
2022/05/08 09:04:13;;;;;;;1.40;1.00;;;23.80;35.40;;;27.87;22.66;102490.97;5077814;28;20063;-17
2022/05/08 09:06:44;;;;;;;1.83;1.13;;;23.80;35.50;;;27.87;22.44;102495.50;5095496;28;20485;-17
2022/05/08 09:09:33;;;;;;;0.90;0.80;;;23.70;35.50;;;27.76;22.68;102481.91;5095546;28;20110;-17
2022/05/08 09:11:58;;;;;;;1.40;0.82;;;23.70;35.60;;;27.75;22.52;102489.09;5095595;28;20044;-17
2022/05/08 09:14:35;;;;;;;1.38;0.90;;;23.60;35.60;;;27.62;22.79;102482.81;5095172;28;20048;-17
2022/05/08 09:17:04;;;;;;;1.33;1.00;;;23.70;35.70;;;27.63;22.69;102498.84;5077557;28;20083;-17
2022/05/08 09:19:38;;;;;;;0.93;0.73;;;23.60;35.70;;;27.66;22.81;102505.81;5095135;28;20059;-17
2022/05/08 09:22:09;;;;;;;1.08;0.90;;;23.50;35.80;;;27.52;22.91;102496.81;5095766;28;20468;-17
2022/05/08 09:24:52;;;;;;;1.67;0.80;;;23.50;35.80;;;27.52;22.82;102504.03;5095340;28;20043;-17
2022/05/08 09:27:18;;;;;;;;;;;23.50;35.90;;;27.65;22.53;102501.41;5094200;28;20055;-17
2022/05/08 09:29:44;;;;;;;0.75;0.70;;;23.50;35.90;;;27.57;22.91;102511.81;5095333;28;19923;-17
2022/05/08 09:32:41;;;;;;;0.75;0.68;;;23.50;35.90;;;27.47;23.15;102504.31;5095565;28;20376;-17
2022/05/08 09:35:07;;;;;;;1.50;0.90;;;23.40;35.90;;;27.44;22.85;102499.13;5094859;28;20040;-17
2022/05/08 09:37:33;;;;;;;0.80;0.80;;;23.40;36.00;;;27.42;23.19;102505.59;5094540;28;20062;-17
2022/05/08 09:40:16;;;;;;;1.52;1.00;;;23.30;36.00;;;27.35;22.96;102505.97;5094655;28;20062;-16
2022/05/08 09:42:42;;;;;;;1.73;0.88;;;23.30;36.10;;;27.36;23.05;102504.13;5094843;28;20494;-17
2022/05/08 09:45:10;;;;;;;1.40;1.13;;;23.30;36.10;;;27.29;22.95;102494.75;5095013;28;20056;-17
2022/05/08 09:47:44;;;;;;;1.08;0.90;;;23.30;36.10;;;27.26;23.35;102500.28;5092768;28;20051;-17
2022/05/08 09:50:11;;;;;;;0.95;0.90;;;23.30;36.10;;;27.29;23.20;102502.81;5095051;28;20408;-17
2022/05/08 09:52:39;;;;;;;1.48;0.90;;;23.30;36.20;;;27.27;23.11;102499.34;5094645;28;20044;-17
2022/05/08 09:55:09;;;;;;;1.50;1.13;;;23.20;36.20;;;27.22;23.27;102488.88;5095123;28;20036;-17
2022/05/08 09:57:36;;;;;;;1.65;0.90;;;23.20;36.20;;;27.22;23.28;102493.41;5093088;28;20055;-17
2022/05/08 10:00:04;;;;;;;1.67;0.85;;;23.20;36.20;;;27.22;23.10;102504.13;5094607;28;20040;-17
2022/05/08 10:02:38;;;;;;;1.42;0.70;;;23.10;36.30;;;27.15;23.29;102487.53;5075813;28;20465;-17
2022/05/08 10:05:05;;;;;;;1.13;1.02;;;23.20;36.30;;;27.21;23.24;102505.09;5094387;28;20044;-17
2022/05/08 10:07:34;;;;;;;1.92;1.00;;;23.20;36.40;;;27.18;23.37;102498.06;5076621;28;20118;-17
2022/05/08 10:15:30;;;;;;;0.80;0.80;;;23.10;36.30;;;27.17;23.48;102499.91;5079397;28;20040;-17
2022/05/08 10:18:29;;;;;;;1.75;0.90;;;23.20;36.40;;;27.13;23.31;102492.13;5093947;28;20070;-17
2022/05/08 10:21:06;;;;;;;1.75;0.93;;;23.10;36.30;;;27.10;23.10;102481.59;5094171;28;20044;-17
2022/05/08 10:23:41;;;;;;;1.52;0.90;;;23.10;36.30;;;27.08;23.24;102484.38;5094075;28;20044;-17
2022/05/08 10:26:17;;;;;;;1.10;0.93;;;23.10;36.30;;;27.10;23.43;102492.34;5094171;28;20052;-16
2022/05/08 10:29:01;;;;;;;1.38;1.20;;;23.10;36.40;;;27.12;23.26;102495.78;5074614;28;20072;-17
2022/05/08 10:31:48;;;;;;;1.05;0.70;;;23.10;36.30;;;27.11;23.19;102489.53;5094354;28;20051;-16
2022/05/08 10:34:15;;;;;;;0.82;0.75;;;23.10;36.30;;;27.13;23.15;102501.06;5094247;28;20430;-17
2022/05/08 10:37:12;;;;;;;1.45;0.88;;;23.10;36.40;;;27.13;23.40;102506.44;5093926;28;20048;-17